Albertville, Minnesota
Current Conditions -  °F | °C
As of 5:15 AM on Thursday 23 Oct 2014 (Local Time) from KCFE Reporting Station
Haze Haze  
Wind Chill: 53°   Ceiling: 300
Heat Index: 53°   Visibility: 5mi
Dew Point: 51°   Wind: 3mph
Humidity: 93%   Direction: 180°S
Pressure: 29.98"   Gusts: NA
Location:  45.24°N, 93.65°W
Report Text: KCFE 231015Z AUTO 18003KT 5SM BR OVC003 12/11 A2998 RMK AO2 T01180107
Loading
Personal Weather Stations






























Interactive Weather Map New forecast layout! Learn more

10-Day Weather Forecast

Advertisements
Track Severe Weather on mobile